Time;durP1;ratioP1;P1;durP2;ratioP2;P2;SDS_P1;SDS_P2;PMS_P1;PMS_P2;Temp;Humidity;BMP_temperature;BMP_pressure;BME280_temperature;BME280_humidity;BME280_pressure;Samples;Min_cycle;Max_cycle;Signal;HPM_P1;HPM_P2
2021/12/29 00:00:45;;;;;;;10.70;6.05;;;-2.20;81.00;;;;;;5078726;28;20032;-56
2021/12/29 00:03:11;;;;;;;11.00;6.97;;;-2.20;80.90;;;;;;5079742;28;20028;-54
2021/12/29 00:05:36;;;;;;;10.23;7.28;;;-2.20;81.00;;;;;;5077368;28;20385;-53
2021/12/29 00:08:03;;;;;;;10.52;7.60;;;-2.20;81.10;;;;;;5086548;28;20086;-54
2021/12/29 00:10:29;;;;;;;12.00;6.53;;;-2.20;81.00;;;;;;5086646;28;20039;-53
2021/12/29 00:12:56;;;;;;;9.50;7.40;;;-2.20;81.30;;;;;;5080623;28;20039;-54
2021/12/29 00:15:25;;;;;;;9.75;6.97;;;-2.20;81.20;;;;;;5077575;28;20158;-53
2021/12/29 00:17:52;;;;;;;11.50;7.03;;;-2.10;81.20;;;;;;5085194;28;20029;-54
2021/12/29 00:20:22;;;;;;;9.55;7.18;;;-2.10;81.00;;;;;;5085853;28;20036;-53
2021/12/29 00:22:48;;;;;;;10.65;7.65;;;-2.10;81.10;;;;;;5086578;28;20146;-53
2021/12/29 00:25:14;;;;;;;10.00;6.90;;;-2.00;81.20;;;;;;5085633;28;20138;-55
2021/12/29 00:27:40;;;;;;;10.25;6.85;;;-2.00;81.00;;;;;;5087455;28;20028;-53
2021/12/29 00:30:10;;;;;;;11.75;7.43;;;-2.00;80.90;;;;;;5092835;28;20506;-53
2021/12/29 00:32:35;;;;;;;9.10;7.13;;;-2.00;80.80;;;;;;5087919;28;20107;-54
2021/12/29 00:35:02;;;;;;;9.00;6.60;;;-2.00;80.80;;;;;;5076049;28;20225;-55
2021/12/29 00:37:27;;;;;;;10.57;7.30;;;-2.00;80.80;;;;;;5083731;28;20039;-54
2021/12/29 00:39:53;;;;;;;9.82;6.53;;;-2.00;80.50;;;;;;5077832;28;20460;-55
2021/12/29 00:42:20;;;;;;;10.15;7.03;;;-2.00;80.60;;;;;;5077439;28;20040;-54
2021/12/29 00:44:45;;;;;;;8.25;6.45;;;-2.00;81.00;;;;;;5081401;28;20101;-55
2021/12/29 00:47:13;;;;;;;8.32;6.70;;;-2.00;80.60;;;;;;5092344;28;20059;-53
2021/12/29 00:49:40;;;;;;;8.52;7.03;;;-2.00;80.70;;;;;;5083804;28;20407;-54
2021/12/29 00:52:07;;;;;;;10.85;6.65;;;-2.00;80.60;;;;;;5081908;28;20514;-53
2021/12/29 00:54:34;;;;;;;9.02;6.78;;;-2.00;80.50;;;;;;5082590;28;20472;-55
2021/12/29 00:57:00;;;;;;;8.35;6.57;;;-1.90;80.80;;;;;;5076611;28;20026;-56
2021/12/29 00:59:26;;;;;;;9.88;6.60;;;-1.90;80.70;;;;;;5073621;28;20099;-54
2021/12/29 01:01:53;;;;;;;9.07;6.85;;;-1.90;80.70;;;;;;5080535;28;20034;-54
2021/12/29 01:04:18;;;;;;;9.73;7.70;;;-1.90;80.60;;;;;;5080993;28;20032;-54
2021/12/29 01:06:44;;;;;;;11.70;7.43;;;-1.90;80.70;;;;;;5076812;28;21410;-53
2021/12/29 01:09:10;;;;;;;11.68;6.85;;;-1.90;80.90;;;;;;5076527;28;20048;-53
2021/12/29 01:11:36;;;;;;;8.07;6.20;;;-1.90;80.90;;;;;;5082011;28;20095;-56
2021/12/29 01:14:03;;;;;;;9.98;6.95;;;-1.90;80.90;;;;;;5082188;28;20481;-53
2021/12/29 01:19:06;;;;;;;8.70;6.80;;;-1.90;81.00;;;;;;5078044;28;20039;-56
2021/12/29 01:21:33;;;;;;;11.02;7.15;;;-1.90;81.00;;;;;;5078245;28;20040;-55
2021/12/29 01:23:58;;;;;;;9.65;7.65;;;-1.80;81.00;;;;;;5074952;28;20044;-54
2021/12/29 01:26:24;;;;;;;11.35;7.57;;;-1.80;81.00;;;;;;5075747;28;20115;-53
2021/12/29 01:28:51;;;;;;;8.20;6.28;;;-1.80;80.90;;;;;;5081821;28;20057;-57
2021/12/29 01:31:17;;;;;;;10.40;6.65;;;-1.80;81.10;;;;;;5078734;28;20089;-53
2021/12/29 01:33:42;;;;;;;10.05;7.65;;;-1.80;80.80;;;;;;5082074;28;20075;-55
2021/12/29 01:36:08;;;;;;;9.15;6.30;;;-1.70;80.90;;;;;;5084988;28;20046;-54
2021/12/29 01:38:34;;;;;;;9.77;7.28;;;-1.70;80.80;;;;;;5080552;28;20027;-55
2021/12/29 01:40:59;;;;;;;8.85;7.25;;;-1.70;80.80;;;;;;5077790;28;20021;-54
2021/12/29 01:43:25;;;;;;;8.82;6.78;;;-1.70;80.80;;;;;;5083470;28;20400;-53
2021/12/29 01:45:51;;;;;;;10.30;7.28;;;-1.70;80.90;;;;;;5083954;28;20087;-56
2021/12/29 01:48:17;;;;;;;9.20;7.20;;;-1.70;80.80;;;;;;5087719;28;20111;-53
2021/12/29 01:50:48;;;;;;;9.00;6.88;;;-1.70;80.80;;;;;;5084760;28;20028;-53
2021/12/29 01:53:22;;;;;;;10.15;6.63;;;-1.70;80.70;;;;;;5090074;28;20032;-54
2021/12/29 01:55:48;;;;;;;9.68;6.95;;;-1.70;80.60;;;;;;5088375;28;20368;-57
2021/12/29 01:58:14;;;;;;;7.95;6.40;;;-1.70;80.80;;;;;;5085644;28;20126;-55
2021/12/29 02:00:41;;;;;;;9.85;7.35;;;-1.70;80.80;;;;;;5081994;28;20092;-54
2021/12/29 02:03:08;;;;;;;11.55;8.02;;;-1.70;80.90;;;;;;5088304;28;20028;-53
2021/12/29 02:05:35;;;;;;;8.25;6.57;;;-1.70;80.80;;;;;;5095268;28;20027;-56
2021/12/29 02:08:01;;;;;;;8.75;6.93;;;-1.60;80.80;;;;;;5078969;28;20021;-54
2021/12/29 02:10:31;;;;;;;8.27;7.13;;;-1.60;80.80;;;;;;5081036;28;20474;-57
2021/12/29 02:13:01;;;;;;;10.32;7.40;;;-1.60;80.80;;;;;;5085375;28;20031;-52
2021/12/29 02:15:26;;;;;;;8.50;7.10;;;-1.60;80.80;;;;;;5089471;28;20032;-56
2021/12/29 02:17:53;;;;;;;9.68;7.30;;;-1.60;80.80;;;;;;5088156;28;20035;-54
2021/12/29 02:20:20;;;;;;;9.85;7.50;;;-1.60;80.80;;;;;;5083673;28;20056;-53
2021/12/29 02:22:49;;;;;;;10.07;7.40;;;-1.60;80.60;;;;;;5088636;28;20061;-53
2021/12/29 02:27:50;;;;;;;9.90;7.88;;;-1.60;80.70;;;;;;5084184;28;20099;-54
2021/12/29 02:30:20;;;;;;;9.40;7.03;;;-1.60;80.80;;;;;;5086595;28;20033;-55
2021/12/29 02:32:46;;;;;;;9.23;6.60;;;-1.60;80.80;;;;;;5088251;28;20456;-57
2021/12/29 02:35:15;;;;;;;10.10;7.03;;;-1.60;80.80;;;;;;5088783;28;20043;-57
2021/12/29 02:37:40;;;;;;;12.60;8.05;;;-1.60;80.80;;;;;;5081941;28;20040;-53
2021/12/29 02:40:07;;;;;;;9.07;7.13;;;-1.60;80.80;;;;;;5091271;28;20055;-57
2021/12/29 02:42:39;;;;;;;9.40;7.03;;;-1.60;80.80;;;;;;5078714;28;20024;-56
2021/12/29 02:45:07;;;;;;;12.10;7.38;;;-1.60;81.00;;;;;;5075644;28;20033;-55
2021/12/29 02:47:33;;;;;;;11.00;7.90;;;-1.50;81.20;;;;;;5079285;28;20035;-56
2021/12/29 02:49:59;;;;;;;7.47;6.50;;;-1.50;81.10;;;;;;5091575;28;20382;-56
2021/12/29 02:52:25;;;;;;;11.35;7.22;;;-1.50;81.10;;;;;;5082659;28;20029;-57
2021/12/29 02:54:54;;;;;;;9.77;7.20;;;-1.50;81.00;;;;;;5079753;28;20035;-53
2021/12/29 02:57:20;;;;;;;9.60;7.50;;;-1.60;81.00;;;;;;5090373;28;20024;-56
2021/12/29 02:59:45;;;;;;;10.48;7.05;;;-1.50;81.30;;;;;;5086422;28;20086;-54
2021/12/29 03:02:11;;;;;;;8.57;6.60;;;-1.50;81.30;;;;;;5085333;28;20033;-53
2021/12/29 03:04:37;;;;;;;9.80;7.13;;;-1.50;81.20;;;;;;5079025;28;20048;-56
2021/12/29 03:07:03;;;;;;;9.65;7.40;;;-1.50;81.20;;;;;;5081158;28;20024;-53
2021/12/29 03:09:30;;;;;;;10.20;7.07;;;-1.50;81.20;;;;;;5085794;28;20119;-55
2021/12/29 03:11:56;;;;;;;11.40;7.30;;;-1.60;81.20;;;;;;5078567;28;20032;-53
2021/12/29 03:14:22;;;;;;;9.82;6.95;;;-1.60;81.40;;;;;;5078939;28;20124;-54
2021/12/29 03:16:48;;;;;;;9.38;6.82;;;-1.50;81.50;;;;;;5089645;28;20028;-54
2021/12/29 03:19:14;;;;;;;8.75;7.40;;;-1.50;81.50;;;;;;5085142;28;20056;-54
2021/12/29 03:21:40;;;;;;;8.30;6.85;;;-1.50;81.60;;;;;;5087551;28;20047;-53
2021/12/29 03:24:09;;;;;;;10.43;7.03;;;-1.40;81.50;;;;;;5091489;28;20052;-54
2021/12/29 03:26:35;;;;;;;9.65;7.20;;;-1.40;81.60;;;;;;5091398;28;20039;-55
2021/12/29 03:29:01;;;;;;;9.10;6.28;;;-1.40;81.60;;;;;;5074656;28;20033;-55
2021/12/29 03:31:30;;;;;;;8.68;6.68;;;-1.40;81.60;;;;;;5082335;28;20119;-56
2021/12/29 03:33:56;;;;;;;10.35;7.10;;;-1.40;81.70;;;;;;5087029;28;20039;-53
2021/12/29 03:36:22;;;;;;;7.70;6.18;;;-1.40;81.60;;;;;;5087733;28;20032;-54
2021/12/29 03:38:50;;;;;;;8.00;6.45;;;-1.30;81.60;;;;;;5088667;28;20020;-57
2021/12/29 03:41:18;;;;;;;8.88;6.85;;;-1.30;81.50;;;;;;5087372;28;20411;-57
2021/12/29 03:43:45;;;;;;;8.82;6.35;;;-1.30;81.30;;;;;;5081452;28;20039;-52
2021/12/29 03:46:12;;;;;;;9.70;7.28;;;-1.40;81.30;;;;;;5082285;28;20032;-56
2021/12/29 03:48:40;;;;;;;10.40;6.90;;;-1.40;81.30;;;;;;5090325;28;20071;-55
2021/12/29 03:51:06;;;;;;;11.15;7.25;;;-1.40;81.40;;;;;;5091049;28;20027;-53
2021/12/29 03:53:33;;;;;;;7.70;6.15;;;-1.40;81.40;;;;;;5083045;28;20480;-57
2021/12/29 03:55:58;;;;;;;8.98;7.05;;;-1.40;81.30;;;;;;5075395;28;20071;-55
2021/12/29 03:58:26;;;;;;;7.75;6.43;;;-1.40;81.40;;;;;;5085475;28;20016;-57
2021/12/29 04:00:55;;;;;;;8.60;6.55;;;-1.50;81.60;;;;;;5075941;28;20081;-56
2021/12/29 04:03:21;;;;;;;9.38;6.70;;;-1.40;81.70;;;;;;5081660;28;20360;-57
2021/12/29 04:05:47;;;;;;;8.02;6.78;;;-1.50;81.80;;;;;;5084229;28;20028;-57
2021/12/29 04:08:13;;;;;;;9.43;6.78;;;-1.50;81.70;;;;;;5075828;28;20029;-53
2021/12/29 04:10:39;;;;;;;9.20;7.00;;;-1.40;81.60;;;;;;5075260;28;20504;-56
2021/12/29 04:13:04;;;;;;;10.75;6.90;;;-1.40;81.80;;;;;;5076031;28;20031;-54
2021/12/29 04:15:31;;;;;;;10.80;6.93;;;-1.40;81.60;;;;;;5081293;28;20487;-53
2021/12/29 04:17:58;;;;;;;10.00;7.22;;;-1.40;81.70;;;;;;5076202;28;20103;-55
2021/12/29 04:23:12;;;;;;;8.98;6.85;;;-1.40;81.90;;;;;;5084416;28;20530;-56
2021/12/29 04:25:39;;;;;;;8.88;7.05;;;-1.40;81.80;;;;;;5084912;28;20028;-57
2021/12/29 04:28:10;;;;;;;8.77;6.97;;;-1.40;81.70;;;;;;5079232;28;20060;-55
2021/12/29 04:30:36;;;;;;;8.68;6.80;;;-1.40;81.90;;;;;;5086355;28;20024;-57
2021/12/29 04:33:02;;;;;;;9.07;6.85;;;-1.40;81.80;;;;;;5086173;28;20024;-56
2021/12/29 04:35:28;;;;;;;10.50;7.70;;;-1.40;81.70;;;;;;5082598;28;20077;-54
2021/12/29 04:37:54;;;;;;;8.60;6.72;;;-1.30;81.70;;;;;;5074067;28;20528;-54
2021/12/29 04:40:21;;;;;;;8.07;6.57;;;-1.30;81.60;;;;;;5081612;28;20510;-54
2021/12/29 04:42:47;;;;;;;11.02;7.30;;;-1.40;81.60;;;;;;5081820;28;20031;-57
2021/12/29 04:45:14;;;;;;;9.10;6.88;;;-1.30;81.70;;;;;;5083112;28;20031;-56
2021/12/29 04:47:42;;;;;;;12.35;8.40;;;-1.40;81.50;;;;;;5081008;28;20079;-53
2021/12/29 04:50:24;;;;;;;9.35;7.95;;;-1.40;81.50;;;;;;5081136;28;20039;-54
2021/12/29 04:52:50;;;;;;;8.82;7.63;;;-1.40;81.50;;;;;;5089938;28;20028;-53
2021/12/29 04:55:16;;;;;;;8.43;6.80;;;-1.40;81.60;;;;;;5080829;28;20063;-56
2021/12/29 04:57:42;;;;;;;9.63;7.30;;;-1.40;81.50;;;;;;5075397;28;20052;-56
2021/12/29 05:00:08;;;;;;;9.95;7.05;;;-1.40;81.80;;;;;;5079441;28;20035;-55
2021/12/29 05:02:34;;;;;;;10.25;7.57;;;-1.40;81.50;;;;;;5074383;28;20047;-56
2021/12/29 05:05:08;;;;;;;10.70;7.65;;;-1.40;81.40;;;;;;5073140;28;20021;-57
2021/12/29 05:10:18;;;;;;;9.98;7.55;;;-1.40;81.60;;;;;;5091667;28;20365;-53
2021/12/29 05:12:44;;;;;;;9.50;7.53;;;-1.40;81.60;;;;;;5090139;28;20031;-54
2021/12/29 05:15:10;;;;;;;11.88;8.10;;;-1.40;81.60;;;;;;5075714;28;20039;-53
2021/12/29 05:17:35;;;;;;;10.05;7.75;;;-1.40;81.30;;;;;;5079301;28;20051;-54
2021/12/29 05:20:01;;;;;;;12.30;8.27;;;-1.30;81.40;;;;;;5078876;28;20035;-54
2021/12/29 05:22:26;;;;;;;10.88;8.45;;;-1.40;81.10;;;;;;5081611;28;20025;-53
2021/12/29 05:24:52;;;;;;;12.70;8.60;;;-1.30;81.20;;;;;;5082024;28;20032;-53
2021/12/29 05:27:18;;;;;;;10.70;7.88;;;-1.30;81.20;;;;;;5080930;28;20032;-56
2021/12/29 05:29:43;;;;;;;12.20;7.93;;;-1.30;81.30;;;;;;5076630;28;20417;-54
2021/12/29 05:32:09;;;;;;;11.98;8.32;;;-1.30;81.20;;;;;;5082618;28;20036;-56
2021/12/29 05:34:40;;;;;;;11.20;7.78;;;-1.30;81.20;;;;;;5087844;28;20070;-54
2021/12/29 05:37:06;;;;;;;13.77;7.72;;;-1.30;81.00;;;;;;5083840;28;20065;-57
2021/12/29 05:39:32;;;;;;;11.57;8.02;;;-1.30;81.00;;;;;;5077909;28;20025;-57
2021/12/29 05:41:57;;;;;;;8.60;7.30;;;-1.30;81.00;;;;;;5086454;28;20028;-56
2021/12/29 05:44:23;;;;;;;9.75;7.45;;;-1.20;81.00;;;;;;5076528;28;20029;-54
2021/12/29 05:46:48;;;;;;;9.98;7.45;;;-1.20;81.00;;;;;;5088443;28;20060;-57
2021/12/29 05:49:14;;;;;;;10.93;7.85;;;-1.20;81.10;;;;;;5077972;28;20043;-53
2021/12/29 05:51:40;;;;;;;12.38;8.45;;;-1.20;81.10;;;;;;5086382;28;20032;-56
2021/12/29 05:54:05;;;;;;;11.60;8.32;;;-1.20;81.10;;;;;;5084176;28;20064;-56
2021/12/29 05:56:31;;;;;;;9.57;6.95;;;-1.20;81.00;;;;;;5080287;28;20031;-56
2021/12/29 05:58:59;;;;;;;10.50;7.47;;;-1.20;81.00;;;;;;5075440;28;20031;-57
2021/12/29 06:01:26;;;;;;;11.32;7.60;;;-1.20;80.80;;;;;;5076847;28;20151;-55
2021/12/29 06:03:51;;;;;;;9.65;7.45;;;-1.20;80.90;;;;;;5076421;28;20032;-56
2021/12/29 06:06:17;;;;;;;11.02;7.82;;;-1.20;80.80;;;;;;5071149;28;20025;-57
2021/12/29 06:08:43;;;;;;;10.65;7.63;;;-1.20;80.70;;;;;;5076936;28;20486;-56
2021/12/29 06:11:08;;;;;;;9.60;7.72;;;-1.20;80.70;;;;;;5078433;28;20033;-57
2021/12/29 06:13:34;;;;;;;10.68;7.20;;;-1.20;80.70;;;;;;5076927;28;20048;-55
2021/12/29 06:16:00;;;;;;;11.20;7.88;;;-1.20;80.60;;;;;;5080011;28;20113;-57
2021/12/29 06:18:26;;;;;;;10.65;7.85;;;-1.20;80.60;;;;;;5072343;28;20033;-57
2021/12/29 06:20:51;;;;;;;10.00;7.30;;;-1.10;80.70;;;;;;5074544;28;20024;-58
2021/12/29 06:23:17;;;;;;;10.80;8.40;;;-1.10;80.90;;;;;;5074903;28;20047;-57
2021/12/29 06:25:43;;;;;;;10.50;7.93;;;-1.10;80.70;;;;;;5074420;28;20470;-55
2021/12/29 06:28:09;;;;;;;10.10;7.75;;;-1.10;80.70;;;;;;5071816;28;20028;-57
2021/12/29 06:30:34;;;;;;;10.15;8.00;;;-1.10;80.60;;;;;;5074653;28;20124;-57
2021/12/29 06:33:00;;;;;;;10.88;8.57;;;-1.10;80.60;;;;;;5077939;28;20032;-57
2021/12/29 06:35:26;;;;;;;11.40;8.68;;;-1.00;80.80;;;;;;5076501;28;20028;-57
2021/12/29 06:37:51;;;;;;;11.73;8.25;;;-1.00;80.60;;;;;;5080072;28;20017;-57
2021/12/29 06:40:17;;;;;;;13.93;9.07;;;-1.00;80.40;;;;;;5077222;28;20028;-58
2021/12/29 06:42:43;;;;;;;11.52;8.38;;;-0.90;80.30;;;;;;5077404;28;20032;-57
2021/12/29 06:45:09;;;;;;;10.65;8.40;;;-0.90;80.30;;;;;;5072193;28;20818;-56
2021/12/29 06:47:36;;;;;;;12.82;9.02;;;-0.90;80.40;;;;;;5077298;28;20047;-57
2021/12/29 06:50:03;;;;;;;11.95;9.45;;;-0.90;80.10;;;;;;5078801;28;20648;-55
2021/12/29 06:52:29;;;;;;;13.00;8.88;;;-0.90;80.20;;;;;;5073696;28;20019;-54
2021/12/29 06:54:55;;;;;;;11.43;9.23;;;-0.90;80.10;;;;;;5078662;28;20031;-57
2021/12/29 06:57:21;;;;;;;11.32;8.95;;;-0.90;80.10;;;;;;5071505;28;20432;-57
2021/12/29 06:59:46;;;;;;;13.73;8.75;;;-0.90;80.00;;;;;;5069697;28;20043;-57
2021/12/29 07:02:14;;;;;;;11.60;8.43;;;-0.80;80.00;;;;;;5065672;28;20040;-55
2021/12/29 07:04:40;;;;;;;12.70;8.98;;;-0.80;79.90;;;;;;5077672;28;20169;-57
2021/12/29 07:07:06;;;;;;;11.52;8.90;;;-0.80;79.60;;;;;;5068508;28;20502;-58
2021/12/29 07:09:32;;;;;;;11.23;8.75;;;-0.80;79.60;;;;;;5065124;28;20024;-60
2021/12/29 07:11:58;;;;;;;11.55;8.43;;;-0.80;79.70;;;;;;5068318;28;20366;-60
2021/12/29 07:14:23;;;;;;;10.88;8.15;;;-0.80;79.70;;;;;;5063612;28;20047;-59
2021/12/29 07:16:50;;;;;;;15.57;9.60;;;-0.80;79.90;;;;;;5068403;28;20549;-57
2021/12/29 07:19:17;;;;;;;13.15;9.18;;;-0.80;79.60;;;;;;5072463;28;20024;-58
2021/12/29 07:21:44;;;;;;;12.50;8.90;;;-0.80;79.50;;;;;;5065485;28;20066;-60
2021/12/29 07:24:10;;;;;;;12.90;9.25;;;-0.70;79.70;;;;;;5069032;28;20047;-56
2021/12/29 07:26:36;;;;;;;11.68;8.77;;;-0.70;79.60;;;;;;5068169;28;20031;-59
2021/12/29 07:29:03;;;;;;;10.68;7.78;;;-0.70;79.60;;;;;;5063558;28;20546;-59
2021/12/29 07:31:30;;;;;;;12.77;9.05;;;-0.60;79.60;;;;;;5064823;28;20089;-60
2021/12/29 07:33:56;;;;;;;10.88;8.57;;;-0.60;79.50;;;;;;5073074;28;21055;-59
2021/12/29 07:36:22;;;;;;;11.32;9.00;;;-0.60;79.40;;;;;;5067440;28;20035;-60
2021/12/29 07:38:47;;;;;;;10.93;8.20;;;-0.60;79.20;;;;;;5075502;28;20403;-59
2021/12/29 07:41:14;;;;;;;11.52;8.23;;;-0.60;79.30;;;;;;5070052;28;20024;-60
2021/12/29 07:43:40;;;;;;;13.73;8.60;;;-0.60;79.20;;;;;;5065253;28;20028;-60
2021/12/29 07:46:07;;;;;;;11.13;8.57;;;-0.60;79.10;;;;;;5070248;28;20041;-60
2021/12/29 07:48:34;;;;;;;10.65;8.32;;;-0.50;79.30;;;;;;5072614;28;20061;-60
2021/12/29 07:51:03;;;;;;;10.90;8.35;;;-0.50;79.20;;;;;;5068118;28;20032;-59
2021/12/29 07:53:29;;;;;;;10.88;8.05;;;-0.50;79.20;;;;;;5072697;28;20222;-60
2021/12/29 07:55:54;;;;;;;12.10;8.93;;;-0.50;79.20;;;;;;5071233;28;20062;-60
2021/12/29 07:58:22;;;;;;;11.02;8.27;;;-0.40;79.20;;;;;;5069595;28;20077;-60
2021/12/29 08:00:48;;;;;;;13.43;9.02;;;-0.40;78.90;;;;;;5073182;28;20028;-60
2021/12/29 08:03:14;;;;;;;14.45;9.57;;;-0.40;78.90;;;;;;5072130;28;20039;-59
2021/12/29 08:05:41;;;;;;;11.70;8.63;;;-0.40;78.90;;;;;;5069833;28;20472;-59
2021/12/29 08:08:07;;;;;;;10.95;8.48;;;-0.30;79.00;;;;;;5070169;28;20093;-60
2021/12/29 08:10:34;;;;;;;11.68;8.23;;;-0.30;78.80;;;;;;5067610;28;20123;-60
2021/12/29 08:13:01;;;;;;;12.02;8.70;;;-0.30;79.20;;;;;;5072951;28;20025;-59
2021/12/29 08:15:27;;;;;;;13.38;9.15;;;-0.30;78.40;;;;;;5070224;28;20043;-59
2021/12/29 08:17:53;;;;;;;11.77;8.38;;;-0.30;78.70;;;;;;5068760;28;20029;-59
2021/12/29 08:20:19;;;;;;;11.82;8.75;;;-0.30;78.40;;;;;;5068933;28;20036;-59
2021/12/29 08:22:45;;;;;;;11.18;8.50;;;-0.30;78.50;;;;;;5062434;28;20059;-58
2021/12/29 08:25:10;;;;;;;12.32;9.55;;;-0.20;78.60;;;;;;5062387;28;20111;-59
2021/12/29 08:27:36;;;;;;;14.73;9.15;;;-0.20;78.60;;;;;;5065086;28;20085;-60
2021/12/29 08:30:05;;;;;;;14.43;9.05;;;-0.10;78.40;;;;;;5065239;28;20044;-58
2021/12/29 08:32:31;;;;;;;12.43;9.07;;;-0.10;78.40;;;;;;5068519;28;20123;-60
2021/12/29 08:34:56;;;;;;;11.48;8.57;;;-0.10;78.40;;;;;;5069024;28;20392;-60
2021/12/29 08:37:25;;;;;;;11.68;9.00;;;-0.10;78.10;;;;;;5057470;28;20209;-58
2021/12/29 08:39:50;;;;;;;12.20;8.95;;;0.00;78.20;;;;;;5064164;28;20039;-58
2021/12/29 08:42:16;;;;;;;12.50;8.65;;;0.00;78.20;;;;;;5063794;28;20036;-58
2021/12/29 08:44:43;;;;;;;12.45;8.82;;;0.00;78.00;;;;;;5069438;28;20182;-58
2021/12/29 08:47:09;;;;;;;14.05;9.40;;;0.00;77.90;;;;;;5065018;28;20111;-59
2021/12/29 08:49:35;;;;;;;11.88;8.52;;;0.10;77.90;;;;;;5055371;28;20812;-57
2021/12/29 08:52:00;;;;;;;11.82;9.30;;;0.10;77.80;;;;;;5067319;28;20121;-57
2021/12/29 08:54:27;;;;;;;11.68;9.05;;;0.10;77.90;;;;;;5056638;28;20032;-59
2021/12/29 08:56:54;;;;;;;12.00;9.35;;;0.10;77.80;;;;;;5063055;28;20028;-57
2021/12/29 08:59:21;;;;;;;12.88;9.40;;;0.10;77.70;;;;;;5063057;28;20583;-58
2021/12/29 09:01:47;;;;;;;14.02;9.20;;;0.10;77.90;;;;;;5059733;28;20035;-60
2021/12/29 09:04:14;;;;;;;13.80;9.43;;;0.10;77.80;;;;;;5066709;28;20055;-57
2021/12/29 09:06:39;;;;;;;11.18;8.82;;;0.20;77.90;;;;;;5069498;28;20054;-59
2021/12/29 09:09:05;;;;;;;13.43;9.23;;;0.20;77.80;;;;;;5069594;28;20028;-59
2021/12/29 09:11:31;;;;;;;13.63;9.13;;;0.20;77.50;;;;;;5073798;28;20044;-61
2021/12/29 09:14:00;;;;;;;13.45;9.40;;;0.20;77.40;;;;;;5061763;28;20036;-56
2021/12/29 09:16:27;;;;;;;12.40;9.27;;;0.20;77.40;;;;;;5065674;28;20034;-58
2021/12/29 09:18:53;;;;;;;11.65;9.13;;;0.30;77.50;;;;;;5066449;28;20024;-56
2021/12/29 09:21:19;;;;;;;13.70;8.77;;;0.30;77.30;;;;;;5056646;28;20028;-59
2021/12/29 09:23:45;;;;;;;12.18;9.00;;;0.30;77.30;;;;;;5059151;28;20960;-59
2021/12/29 09:26:13;;;;;;;13.23;10.18;;;0.30;77.00;;;;;;5068475;28;20391;-59
2021/12/29 09:28:39;;;;;;;12.13;9.00;;;0.40;77.00;;;;;;5059640;28;20028;-59
2021/12/29 09:31:05;;;;;;;11.73;8.63;;;0.40;77.00;;;;;;5075296;28;20032;-58
2021/12/29 09:33:31;;;;;;;10.80;8.63;;;0.40;77.00;;;;;;5075223;28;20047;-55
2021/12/29 09:36:02;;;;;;;11.90;8.95;;;0.40;77.10;;;;;;5069552;28;20055;-58
2021/12/29 09:38:35;;;;;;;10.98;8.65;;;0.40;76.90;;;;;;5054659;28;20060;-60
2021/12/29 09:41:03;;;;;;;12.50;9.13;;;0.40;77.50;;;;;;5063578;28;21868;-57
2021/12/29 09:43:29;;;;;;;11.73;8.88;;;0.40;76.90;;;;;;5071020;28;20024;-60
2021/12/29 09:45:58;;;;;;;13.20;9.00;;;0.40;76.80;;;;;;5067580;28;20040;-59
2021/12/29 09:48:24;;;;;;;11.88;8.48;;;0.40;76.80;;;;;;5070392;28;20024;-57
2021/12/29 09:50:51;;;;;;;13.70;9.48;;;0.40;76.70;;;;;;5063417;28;20036;-58
2021/12/29 09:53:18;;;;;;;10.75;8.18;;;0.40;76.70;;;;;;5063542;28;20028;-56
2021/12/29 09:55:45;;;;;;;10.65;8.20;;;0.40;76.50;;;;;;5061766;28;20024;-59
2021/12/29 09:58:12;;;;;;;10.65;7.85;;;0.40;76.60;;;;;;5058887;28;20052;-57
2021/12/29 10:00:44;;;;;;;9.90;8.20;;;0.40;76.60;;;;;;5061051;28;20016;-57
2021/12/29 10:03:13;;;;;;;10.25;8.65;;;0.50;76.50;;;;;;5059090;28;20093;-58
2021/12/29 10:05:41;;;;;;;11.02;7.95;;;0.40;76.50;;;;;;5062497;28;20124;-57
2021/12/29 10:08:11;;;;;;;10.68;8.38;;;0.50;76.60;;;;;;5066674;28;20079;-54
2021/12/29 10:10:40;;;;;;;11.32;8.10;;;0.50;76.50;;;;;;5070189;28;20446;-58
2021/12/29 10:13:07;;;;;;;11.73;9.05;;;0.50;76.50;;;;;;5072578;28;20039;-59
2021/12/29 10:15:54;;;;;;;12.00;9.13;;;0.40;76.40;;;;;;5070449;28;20054;-57
2021/12/29 10:18:23;;;;;;;12.50;8.75;;;0.40;76.40;;;;;;5075881;28;20032;-59
2021/12/29 10:20:53;;;;;;;12.90;9.57;;;0.40;76.40;;;;;;5069282;28;20024;-58
2021/12/29 10:23:23;;;;;;;14.32;10.30;;;0.40;76.30;;;;;;5057584;28;20068;-59
2021/12/29 10:25:51;;;;;;;12.00;8.88;;;0.40;76.30;;;;;;5067700;28;20024;-60
2021/12/29 10:28:29;;;;;;;14.90;10.27;;;0.40;76.60;;;;;;5065700;28;20031;-57
2021/12/29 10:31:03;;;;;;;14.90;10.05;;;0.40;76.50;;;;;;5068018;28;20090;-57
2021/12/29 10:33:36;;;;;;;13.77;10.68;;;0.40;76.50;;;;;;5066489;28;20032;-56
2021/12/29 10:36:21;;;;;;;15.60;11.32;;;0.50;76.60;;;;;;5070569;28;20443;-58
2021/12/29 10:38:55;;;;;;;13.68;10.50;;;0.50;76.40;;;;;;5066204;28;20047;-56
2021/12/29 10:41:21;;;;;;;15.25;10.45;;;0.50;76.40;;;;;;5063926;28;20028;-57
2021/12/29 10:43:57;;;;;;;13.73;9.93;;;0.50;76.30;;;;;;5051667;28;21426;-57
2021/12/29 10:46:26;;;;;;;14.82;10.20;;;0.50;76.20;;;;;;5057971;28;22899;-58
2021/12/29 10:48:53;;;;;;;13.98;10.82;;;0.50;76.20;;;;;;5066276;28;20028;-57
2021/12/29 10:51:26;;;;;;;13.23;10.32;;;0.50;76.90;;;;;;5069280;28;20028;-56
2021/12/29 10:53:52;;;;;;;14.30;10.10;;;0.50;76.10;;;;;;5069533;28;20036;-57
2021/12/29 10:56:23;;;;;;;13.57;10.68;;;0.50;76.20;;;;;;5076273;28;20035;-56
2021/12/29 10:58:52;;;;;;;12.25;9.50;;;0.50;76.30;;;;;;5075620;28;20031;-56
2021/12/29 11:01:19;;;;;;;15.25;10.50;;;0.50;76.20;;;;;;5077698;28;20031;-57
2021/12/29 11:03:55;;;;;;;13.95;9.77;;;0.50;76.20;;;;;;5068073;28;20033;-58
2021/12/29 11:06:23;;;;;;;14.25;9.93;;;0.50;76.20;;;;;;5067926;28;20028;-56
2021/12/29 11:08:57;;;;;;;14.65;10.77;;;0.40;76.20;;;;;;5068091;28;20043;-57
2021/12/29 11:11:37;;;;;;;16.35;10.77;;;0.50;76.20;;;;;;5073234;28;20519;-57
2021/12/29 11:14:16;;;;;;;16.17;10.80;;;0.40;76.20;;;;;;5077262;28;20063;-57
2021/12/29 11:16:44;;;;;;;16.83;11.20;;;0.40;76.40;;;;;;5071619;28;20032;-56
2021/12/29 11:19:10;;;;;;;12.48;9.55;;;0.40;76.40;;;;;;5065595;28;20032;-57
2021/12/29 11:21:39;;;;;;;13.63;10.27;;;0.40;76.30;;;;;;5069689;28;20035;-54
2021/12/29 11:24:20;;;;;;;11.82;8.75;;;0.40;76.40;;;;;;5070715;28;20052;-56
2021/12/29 11:26:46;;;;;;;11.55;8.38;;;0.50;76.50;;;;;;5066414;28;20036;-56
2021/12/29 11:29:19;;;;;;;13.25;9.10;;;0.40;76.40;;;;;;5061310;28;20056;-56
2021/12/29 11:31:48;;;;;;;10.55;8.70;;;0.50;76.50;;;;;;5066538;28;20757;-57
2021/12/29 11:34:26;;;;;;;11.55;8.90;;;0.50;76.50;;;;;;5070835;28;20688;-56
2021/12/29 11:37:00;;;;;;;12.48;8.80;;;0.50;76.30;;;;;;5075853;28;20490;-56
2021/12/29 11:39:27;;;;;;;10.95;8.40;;;0.50;76.30;;;;;;5091048;28;20024;-56
2021/12/29 11:41:52;;;;;;;12.30;8.85;;;0.50;76.30;;;;;;5072388;28;20036;-57
2021/12/29 11:44:18;;;;;;;12.13;8.70;;;0.50;76.20;;;;;;5074070;28;20032;-57
2021/12/29 11:46:44;;;;;;;11.38;9.00;;;0.40;76.20;;;;;;5070721;28;20056;-56
2021/12/29 11:49:10;;;;;;;11.57;8.48;;;0.40;76.30;;;;;;5069463;28;20159;-56
2021/12/29 11:51:55;;;;;;;11.77;8.30;;;0.50;76.40;;;;;;5073213;28;20073;-58
2021/12/29 11:54:30;;;;;;;11.93;7.82;;;0.50;76.30;;;;;;5072155;28;20068;-56
2021/12/29 11:56:56;;;;;;;11.40;9.25;;;0.50;76.30;;;;;;5072491;28;20020;-56
2021/12/29 11:59:30;;;;;;;11.35;8.65;;;0.40;76.20;;;;;;5074591;28;20029;-57
2021/12/29 12:02:00;;;;;;;11.93;9.30;;;0.40;76.20;;;;;;5067154;28;20435;-57
2021/12/29 12:04:26;;;;;;;13.15;8.73;;;0.40;76.20;;;;;;5066349;28;20028;-58
2021/12/29 12:07:01;;;;;;;12.45;9.18;;;0.40;76.20;;;;;;5063002;28;20032;-57
2021/12/29 12:09:27;;;;;;;13.55;9.35;;;0.40;76.20;;;;;;5069915;28;20028;-56
2021/12/29 12:12:00;;;;;;;12.63;9.20;;;0.40;76.30;;;;;;5069209;28;20040;-57
2021/12/29 12:14:34;;;;;;;13.75;9.20;;;0.40;76.30;;;;;;5068787;28;20035;-57
2021/12/29 12:17:11;;;;;;;10.70;8.18;;;0.40;76.20;;;;;;5065697;28;20075;-57
2021/12/29 12:19:38;;;;;;;11.02;8.43;;;0.40;76.30;;;;;;5058620;28;20028;-57
2021/12/29 12:22:10;;;;;;;12.68;8.93;;;0.40;76.20;;;;;;5068976;28;20020;-55
2021/12/29 12:24:41;;;;;;;11.10;8.63;;;0.40;76.20;;;;;;5066560;28;20445;-58
2021/12/29 12:27:15;;;;;;;9.30;8.18;;;0.40;76.20;;;;;;5069575;28;20035;-58
2021/12/29 12:29:44;;;;;;;15.77;8.98;;;0.40;76.40;;;;;;5061772;28;20165;-55
2021/12/29 12:32:17;;;;;;;12.38;7.88;;;0.40;76.50;;;;;;5068165;28;20032;-57
2021/12/29 12:34:50;;;;;;;12.68;8.50;;;0.40;76.40;;;;;;5069482;28;20055;-58
2021/12/29 12:37:19;;;;;;;9.77;8.05;;;0.40;76.20;;;;;;5066630;28;20020;-57
2021/12/29 12:40:09;;;;;;;10.25;7.63;;;0.40;76.20;;;;;;5072256;28;20061;-57
2021/12/29 12:42:35;;;;;;;11.45;8.63;;;0.30;76.10;;;;;;5065241;28;20032;-58
2021/12/29 12:45:03;;;;;;;10.75;7.50;;;0.30;76.30;;;;;;5064308;28;20036;-55
2021/12/29 12:47:32;;;;;;;10.60;8.27;;;0.30;76.30;;;;;;5062521;28;20028;-58
2021/12/29 12:50:00;;;;;;;11.15;8.07;;;0.30;76.30;;;;;;5065606;28;20028;-57
2021/12/29 12:52:27;;;;;;;13.23;8.15;;;0.30;76.40;;;;;;5068043;28;20063;-58
2021/12/29 12:54:58;;;;;;;10.60;8.45;;;0.30;76.30;;;;;;5066761;28;20032;-58